sensor_id;sensor_type;location;lat;lon;timestamp;P1;durP1;ratioP1;P2;durP2;ratioP2
75700;SDS011;64321;48.796;44.740;2023-02-28T00:00:37;36.88;;;16.02;;
75700;SDS011;64321;48.796;44.740;2023-02-28T00:05:40;40.60;;;16.08;;
75700;SDS011;64321;48.796;44.740;2023-02-28T00:10:43;39.92;;;17.25;;
75700;SDS011;64321;48.796;44.740;2023-02-28T00:15:45;36.03;;;17.10;;
75700;SDS011;64321;48.796;44.740;2023-02-28T00:20:47;39.30;;;17.17;;
75700;SDS011;64321;48.796;44.740;2023-02-28T00:25:49;36.05;;;15.60;;
75700;SDS011;64321;48.796;44.740;2023-02-28T00:30:52;46.40;;;17.20;;
75700;SDS011;64321;48.796;44.740;2023-02-28T00:36:01;39.35;;;17.25;;
75700;SDS011;64321;48.796;44.740;2023-02-28T00:41:04;39.88;;;18.10;;
75700;SDS011;64321;48.796;44.740;2023-02-28T00:46:07;39.50;;;17.15;;
75700;SDS011;64321;48.796;44.740;2023-02-28T00:51:09;39.33;;;16.70;;
75700;SDS011;64321;48.796;44.740;2023-02-28T00:56:11;44.88;;;17.05;;
75700;SDS011;64321;48.796;44.740;2023-02-28T01:01:13;35.97;;;16.70;;
75700;SDS011;64321;48.796;44.740;2023-02-28T01:06:16;41.00;;;16.55;;
75700;SDS011;64321;48.796;44.740;2023-02-28T01:11:18;45.17;;;18.15;;
75700;SDS011;64321;48.796;44.740;2023-02-28T01:16:20;47.67;;;19.00;;
75700;SDS011;64321;48.796;44.740;2023-02-28T01:21:23;49.38;;;18.05;;
75700;SDS011;64321;48.796;44.740;2023-02-28T01:26:25;48.92;;;17.48;;
75700;SDS011;64321;48.796;44.740;2023-02-28T01:31:27;43.67;;;14.63;;
75700;SDS011;64321;48.796;44.740;2023-02-28T01:36:30;72.85;;;14.02;;
75700;SDS011;64321;48.796;44.740;2023-02-28T01:41:33;31.13;;;11.02;;
75700;SDS011;64321;48.796;44.740;2023-02-28T01:46:35;35.80;;;13.90;;
75700;SDS011;64321;48.796;44.740;2023-02-28T01:51:40;32.50;;;12.90;;
75700;SDS011;64321;48.796;44.740;2023-02-28T01:56:49;27.95;;;11.23;;
75700;SDS011;64321;48.796;44.740;2023-02-28T02:01:53;26.88;;;11.32;;
75700;SDS011;64321;48.796;44.740;2023-02-28T02:06:56;27.08;;;12.23;;
75700;SDS011;64321;48.796;44.740;2023-02-28T02:12:00;27.02;;;11.25;;
75700;SDS011;64321;48.796;44.740;2023-02-28T02:17:16;26.92;;;11.40;;
75700;SDS011;64321;48.796;44.740;2023-02-28T02:22:37;25.80;;;10.10;;
75700;SDS011;64321;48.796;44.740;2023-02-28T02:27:51;26.15;;;10.88;;
75700;SDS011;64321;48.796;44.740;2023-02-28T02:43:48;30.05;;;11.45;;
75700;SDS011;64321;48.796;44.740;2023-02-28T02:48:53;31.75;;;12.10;;
75700;SDS011;64321;48.796;44.740;2023-02-28T02:54:02;30.02;;;11.98;;
75700;SDS011;64321;48.796;44.740;2023-02-28T02:59:07;29.38;;;11.30;;
75700;SDS011;64321;48.796;44.740;2023-02-28T03:04:12;32.22;;;11.05;;
75700;SDS011;64321;48.796;44.740;2023-02-28T03:09:16;32.70;;;11.45;;
75700;SDS011;64321;48.796;44.740;2023-02-28T03:14:23;27.48;;;10.13;;
75700;SDS011;64321;48.796;44.740;2023-02-28T03:19:38;25.13;;;9.38;;
75700;SDS011;64321;48.796;44.740;2023-02-28T03:30:09;30.35;;;9.98;;
75700;SDS011;64321;48.796;44.740;2023-02-28T03:35:13;21.85;;;9.30;;
75700;SDS011;64321;48.796;44.740;2023-02-28T03:40:20;18.45;;;7.80;;
75700;SDS011;64321;48.796;44.740;2023-02-28T03:45:25;25.80;;;8.45;;
75700;SDS011;64321;48.796;44.740;2023-02-28T03:50:34;26.02;;;8.23;;
75700;SDS011;64321;48.796;44.740;2023-02-28T03:55:39;26.90;;;8.10;;
75700;SDS011;64321;48.796;44.740;2023-02-28T04:00:44;23.33;;;6.97;;
75700;SDS011;64321;48.796;44.740;2023-02-28T04:05:51;25.08;;;8.13;;
75700;SDS011;64321;48.796;44.740;2023-02-28T04:10:56;28.17;;;8.65;;
75700;SDS011;64321;48.796;44.740;2023-02-28T04:15:59;22.10;;;8.15;;
75700;SDS011;64321;48.796;44.740;2023-02-28T04:21:02;22.60;;;8.93;;
75700;SDS011;64321;48.796;44.740;2023-02-28T04:26:04;20.83;;;7.63;;
75700;SDS011;64321;48.796;44.740;2023-02-28T04:31:08;24.13;;;7.38;;
75700;SDS011;64321;48.796;44.740;2023-02-28T04:36:10;26.23;;;7.90;;
75700;SDS011;64321;48.796;44.740;2023-02-28T04:41:13;17.95;;;6.68;;
75700;SDS011;64321;48.796;44.740;2023-02-28T04:46:15;19.48;;;7.95;;
75700;SDS011;64321;48.796;44.740;2023-02-28T04:51:17;16.98;;;6.47;;
75700;SDS011;64321;48.796;44.740;2023-02-28T04:56:20;23.70;;;8.32;;
75700;SDS011;64321;48.796;44.740;2023-02-28T05:01:24;17.63;;;6.90;;
75700;SDS011;64321;48.796;44.740;2023-02-28T05:06:27;16.98;;;7.57;;
75700;SDS011;64321;48.796;44.740;2023-02-28T05:11:31;20.40;;;7.65;;
75700;SDS011;64321;48.796;44.740;2023-02-28T05:16:36;16.90;;;7.00;;
75700;SDS011;64321;48.796;44.740;2023-02-28T05:21:40;21.63;;;6.95;;
75700;SDS011;64321;48.796;44.740;2023-02-28T05:26:42;22.48;;;7.25;;
75700;SDS011;64321;48.796;44.740;2023-02-28T05:31:45;18.13;;;8.15;;
75700;SDS011;64321;48.796;44.740;2023-02-28T05:36:47;16.75;;;7.15;;
75700;SDS011;64321;48.796;44.740;2023-02-28T05:41:49;17.27;;;7.25;;
75700;SDS011;64321;48.796;44.740;2023-02-28T05:46:51;16.67;;;6.47;;
75700;SDS011;64321;48.796;44.740;2023-02-28T05:51:55;13.02;;;6.10;;
75700;SDS011;64321;48.796;44.740;2023-02-28T05:56:57;13.73;;;5.80;;
75700;SDS011;64321;48.796;44.740;2023-02-28T06:01:59;13.95;;;5.88;;
75700;SDS011;64321;48.796;44.740;2023-02-28T06:07:02;11.48;;;5.75;;
75700;SDS011;64321;48.796;44.740;2023-02-28T06:12:05;10.50;;;4.38;;
75700;SDS011;64321;48.796;44.740;2023-02-28T06:17:09;9.45;;;4.10;;
75700;SDS011;64321;48.796;44.740;2023-02-28T06:22:11;10.23;;;4.72;;
75700;SDS011;64321;48.796;44.740;2023-02-28T06:27:13;9.13;;;4.30;;
75700;SDS011;64321;48.796;44.740;2023-02-28T06:32:15;12.27;;;4.93;;
75700;SDS011;64321;48.796;44.740;2023-02-28T06:37:18;11.20;;;5.38;;
75700;SDS011;64321;48.796;44.740;2023-02-28T06:42:20;11.40;;;5.50;;
75700;SDS011;64321;48.796;44.740;2023-02-28T06:47:23;8.48;;;4.82;;
75700;SDS011;64321;48.796;44.740;2023-02-28T06:52:25;10.73;;;5.10;;
75700;SDS011;64321;48.796;44.740;2023-02-28T06:57:28;8.73;;;4.05;;
75700;SDS011;64321;48.796;44.740;2023-02-28T07:02:33;9.82;;;3.92;;
75700;SDS011;64321;48.796;44.740;2023-02-28T07:07:35;10.45;;;4.35;;
75700;SDS011;64321;48.796;44.740;2023-02-28T07:12:39;8.60;;;4.32;;
75700;SDS011;64321;48.796;44.740;2023-02-28T07:17:42;8.85;;;5.13;;
75700;SDS011;64321;48.796;44.740;2023-02-28T07:22:44;11.75;;;5.07;;
75700;SDS011;64321;48.796;44.740;2023-02-28T07:27:46;10.95;;;5.82;;
75700;SDS011;64321;48.796;44.740;2023-02-28T07:32:48;11.45;;;6.25;;
75700;SDS011;64321;48.796;44.740;2023-02-28T07:37:50;15.60;;;9.45;;
75700;SDS011;64321;48.796;44.740;2023-02-28T07:42:53;17.83;;;8.45;;
75700;SDS011;64321;48.796;44.740;2023-02-28T07:47:56;16.70;;;9.07;;
75700;SDS011;64321;48.796;44.740;2023-02-28T07:52:58;19.77;;;9.57;;
75700;SDS011;64321;48.796;44.740;2023-02-28T07:58:01;23.50;;;9.70;;
75700;SDS011;64321;48.796;44.740;2023-02-28T08:03:03;18.90;;;8.68;;
75700;SDS011;64321;48.796;44.740;2023-02-28T08:08:06;22.05;;;10.63;;
75700;SDS011;64321;48.796;44.740;2023-02-28T08:13:08;21.55;;;10.20;;
75700;SDS011;64321;48.796;44.740;2023-02-28T08:18:10;20.23;;;10.70;;
75700;SDS011;64321;48.796;44.740;2023-02-28T08:23:13;11.70;;;6.68;;
75700;SDS011;64321;48.796;44.740;2023-02-28T08:28:15;15.20;;;7.63;;
75700;SDS011;64321;48.796;44.740;2023-02-28T08:33:17;16.63;;;9.75;;
75700;SDS011;64321;48.796;44.740;2023-02-28T08:38:19;12.48;;;7.07;;
75700;SDS011;64321;48.796;44.740;2023-02-28T08:43:21;12.80;;;7.18;;
75700;SDS011;64321;48.796;44.740;2023-02-28T08:48:24;11.13;;;6.20;;
75700;SDS011;64321;48.796;44.740;2023-02-28T08:53:27;10.35;;;5.65;;
75700;SDS011;64321;48.796;44.740;2023-02-28T08:58:29;12.38;;;6.40;;
75700;SDS011;64321;48.796;44.740;2023-02-28T09:03:31;6.80;;;3.50;;
75700;SDS011;64321;48.796;44.740;2023-02-28T09:08:34;6.45;;;3.40;;
75700;SDS011;64321;48.796;44.740;2023-02-28T09:13:36;8.15;;;4.53;;
75700;SDS011;64321;48.796;44.740;2023-02-28T09:18:39;10.00;;;5.10;;
75700;SDS011;64321;48.796;44.740;2023-02-28T09:23:42;9.23;;;3.75;;
75700;SDS011;64321;48.796;44.740;2023-02-28T09:28:45;9.13;;;4.55;;
75700;SDS011;64321;48.796;44.740;2023-02-28T09:33:48;13.10;;;6.15;;
75700;SDS011;64321;48.796;44.740;2023-02-28T09:38:50;11.25;;;5.28;;
75700;SDS011;64321;48.796;44.740;2023-02-28T09:43:59;10.13;;;5.55;;
75700;SDS011;64321;48.796;44.740;2023-02-28T09:49:05;10.07;;;5.68;;
75700;SDS011;64321;48.796;44.740;2023-02-28T09:54:10;10.65;;;5.05;;
75700;SDS011;64321;48.796;44.740;2023-02-28T09:59:28;12.70;;;6.32;;
75700;SDS011;64321;48.796;44.740;2023-02-28T10:09:40;12.10;;;7.57;;
75700;SDS011;64321;48.796;44.740;2023-02-28T10:14:44;12.23;;;6.60;;
75700;SDS011;64321;48.796;44.740;2023-02-28T10:19:55;11.48;;;6.97;;
75700;SDS011;64321;48.796;44.740;2023-02-28T10:24:58;10.20;;;4.57;;
75700;SDS011;64321;48.796;44.740;2023-02-28T10:30:09;12.98;;;6.38;;
75700;SDS011;64321;48.796;44.740;2023-02-28T10:35:24;11.23;;;5.97;;
75700;SDS011;64321;48.796;44.740;2023-02-28T10:40:29;12.82;;;6.65;;
75700;SDS011;64321;48.796;44.740;2023-02-28T10:45:34;12.00;;;5.88;;
75700;SDS011;64321;48.796;44.740;2023-02-28T10:50:43;14.48;;;6.93;;
75700;SDS011;64321;48.796;44.740;2023-02-28T10:55:55;10.77;;;5.97;;
75700;SDS011;64321;48.796;44.740;2023-02-28T11:00:58;11.43;;;6.28;;
75700;SDS011;64321;48.796;44.740;2023-02-28T11:06:08;11.88;;;6.78;;
75700;SDS011;64321;48.796;44.740;2023-02-28T11:11:14;13.15;;;6.88;;
75700;SDS011;64321;48.796;44.740;2023-02-28T11:16:18;15.13;;;7.65;;
75700;SDS011;64321;48.796;44.740;2023-02-28T11:21:27;16.30;;;6.78;;
75700;SDS011;64321;48.796;44.740;2023-02-28T11:26:38;10.98;;;5.63;;
75700;SDS011;64321;48.796;44.740;2023-02-28T11:31:41;11.63;;;5.38;;
75700;SDS011;64321;48.796;44.740;2023-02-28T11:36:43;12.88;;;5.82;;
75700;SDS011;64321;48.796;44.740;2023-02-28T11:42:07;9.00;;;5.13;;
75700;SDS011;64321;48.796;44.740;2023-02-28T11:47:22;10.43;;;5.63;;
75700;SDS011;64321;48.796;44.740;2023-02-28T12:13:21;7.38;;;3.78;;
75700;SDS011;64321;48.796;44.740;2023-02-28T12:28:42;6.85;;;3.67;;
75700;SDS011;64321;48.796;44.740;2023-02-28T12:33:46;6.30;;;2.92;;
75700;SDS011;64321;48.796;44.740;2023-02-28T12:39:00;7.00;;;3.70;;
75700;SDS011;64321;48.796;44.740;2023-02-28T12:44:12;6.38;;;3.15;;
75700;SDS011;64321;48.796;44.740;2023-02-28T12:49:21;7.60;;;3.25;;
75700;SDS011;64321;48.796;44.740;2023-02-28T12:54:29;7.05;;;4.15;;
75700;SDS011;64321;48.796;44.740;2023-02-28T12:59:38;7.95;;;3.70;;
75700;SDS011;64321;48.796;44.740;2023-02-28T13:04:56;8.18;;;4.45;;
75700;SDS011;64321;48.796;44.740;2023-02-28T13:10:00;6.72;;;3.85;;
75700;SDS011;64321;48.796;44.740;2023-02-28T13:15:08;9.20;;;4.45;;
75700;SDS011;64321;48.796;44.740;2023-02-28T13:20:18;8.30;;;4.00;;
75700;SDS011;64321;48.796;44.740;2023-02-28T13:35:46;11.88;;;6.25;;
75700;SDS011;64321;48.796;44.740;2023-02-28T13:40:48;11.82;;;5.90;;
75700;SDS011;64321;48.796;44.740;2023-02-28T13:46:05;11.00;;;5.85;;
75700;SDS011;64321;48.796;44.740;2023-02-28T13:56:57;12.25;;;6.18;;
75700;SDS011;64321;48.796;44.740;2023-02-28T14:07:28;10.13;;;4.72;;
75700;SDS011;64321;48.796;44.740;2023-02-28T14:17:57;12.80;;;6.10;;
75700;SDS011;64321;48.796;44.740;2023-02-28T14:23:04;14.38;;;6.75;;
75700;SDS011;64321;48.796;44.740;2023-02-28T14:38:22;12.88;;;5.85;;
75700;SDS011;64321;48.796;44.740;2023-02-28T14:43:27;16.60;;;6.70;;
75700;SDS011;64321;48.796;44.740;2023-02-28T14:48:29;13.85;;;6.47;;
75700;SDS011;64321;48.796;44.740;2023-02-28T14:53:35;14.20;;;7.57;;
75700;SDS011;64321;48.796;44.740;2023-02-28T14:58:37;16.00;;;8.55;;
75700;SDS011;64321;48.796;44.740;2023-02-28T15:03:40;14.95;;;7.78;;
75700;SDS011;64321;48.796;44.740;2023-02-28T15:08:44;15.52;;;7.85;;
75700;SDS011;64321;48.796;44.740;2023-02-28T15:13:47;15.40;;;8.20;;
75700;SDS011;64321;48.796;44.740;2023-02-28T15:18:52;14.20;;;6.72;;
75700;SDS011;64321;48.796;44.740;2023-02-28T15:23:57;15.90;;;7.75;;
75700;SDS011;64321;48.796;44.740;2023-02-28T15:29:10;16.10;;;7.95;;
75700;SDS011;64321;48.796;44.740;2023-02-28T15:34:21;13.88;;;6.25;;
75700;SDS011;64321;48.796;44.740;2023-02-28T15:39:28;13.63;;;7.18;;
75700;SDS011;64321;48.796;44.740;2023-02-28T15:44:33;14.07;;;7.07;;
75700;SDS011;64321;48.796;44.740;2023-02-28T15:49:40;14.70;;;8.02;;
75700;SDS011;64321;48.796;44.740;2023-02-28T15:54:46;15.32;;;8.05;;
75700;SDS011;64321;48.796;44.740;2023-02-28T16:00:00;16.15;;;8.32;;
75700;SDS011;64321;48.796;44.740;2023-02-28T16:10:20;15.05;;;8.10;;
75700;SDS011;64321;48.796;44.740;2023-02-28T16:15:24;14.63;;;7.40;;
75700;SDS011;64321;48.796;44.740;2023-02-28T16:20:28;15.93;;;7.68;;
75700;SDS011;64321;48.796;44.740;2023-02-28T16:25:38;14.75;;;7.32;;
75700;SDS011;64321;48.796;44.740;2023-02-28T16:30:41;16.65;;;8.35;;
75700;SDS011;64321;48.796;44.740;2023-02-28T16:35:43;18.33;;;8.57;;
75700;SDS011;64321;48.796;44.740;2023-02-28T16:40:45;17.95;;;8.65;;
75700;SDS011;64321;48.796;44.740;2023-02-28T16:45:48;14.13;;;7.15;;
75700;SDS011;64321;48.796;44.740;2023-02-28T16:50:50;16.50;;;7.13;;
75700;SDS011;64321;48.796;44.740;2023-02-28T16:55:53;15.23;;;7.32;;
75700;SDS011;64321;48.796;44.740;2023-02-28T17:00:55;18.10;;;8.68;;
75700;SDS011;64321;48.796;44.740;2023-02-28T17:05:57;14.73;;;7.68;;
75700;SDS011;64321;48.796;44.740;2023-02-28T17:10:59;15.77;;;8.13;;
75700;SDS011;64321;48.796;44.740;2023-02-28T17:16:03;16.80;;;7.65;;
75700;SDS011;64321;48.796;44.740;2023-02-28T17:21:10;15.25;;;8.25;;
75700;SDS011;64321;48.796;44.740;2023-02-28T17:26:15;14.18;;;7.60;;
75700;SDS011;64321;48.796;44.740;2023-02-28T17:31:19;16.42;;;6.70;;
75700;SDS011;64321;48.796;44.740;2023-02-28T17:36:22;15.25;;;7.05;;
75700;SDS011;64321;48.796;44.740;2023-02-28T17:41:26;15.23;;;6.50;;
75700;SDS011;64321;48.796;44.740;2023-02-28T17:46:28;16.77;;;7.60;;
75700;SDS011;64321;48.796;44.740;2023-02-28T17:51:31;16.25;;;7.32;;
75700;SDS011;64321;48.796;44.740;2023-02-28T17:56:33;17.27;;;8.27;;
75700;SDS011;64321;48.796;44.740;2023-02-28T18:01:35;16.75;;;7.80;;
75700;SDS011;64321;48.796;44.740;2023-02-28T18:06:41;12.82;;;6.90;;
75700;SDS011;64321;48.796;44.740;2023-02-28T18:11:52;15.57;;;7.22;;
75700;SDS011;64321;48.796;44.740;2023-02-28T18:16:55;14.75;;;6.90;;
75700;SDS011;64321;48.796;44.740;2023-02-28T18:21:58;14.02;;;7.15;;
75700;SDS011;64321;48.796;44.740;2023-02-28T18:27:00;11.32;;;6.00;;
75700;SDS011;64321;48.796;44.740;2023-02-28T18:32:02;9.65;;;5.20;;
75700;SDS011;64321;48.796;44.740;2023-02-28T18:37:05;9.52;;;5.07;;
75700;SDS011;64321;48.796;44.740;2023-02-28T18:42:07;12.48;;;4.95;;
75700;SDS011;64321;48.796;44.740;2023-02-28T18:47:09;6.95;;;3.92;;
75700;SDS011;64321;48.796;44.740;2023-02-28T18:52:12;9.00;;;4.05;;
75700;SDS011;64321;48.796;44.740;2023-02-28T18:57:14;9.23;;;4.35;;
75700;SDS011;64321;48.796;44.740;2023-02-28T19:02:16;10.27;;;4.32;;
75700;SDS011;64321;48.796;44.740;2023-02-28T19:07:19;7.35;;;3.92;;
75700;SDS011;64321;48.796;44.740;2023-02-28T19:12:21;9.18;;;4.72;;
75700;SDS011;64321;48.796;44.740;2023-02-28T19:17:23;9.82;;;4.63;;
75700;SDS011;64321;48.796;44.740;2023-02-28T19:22:25;8.55;;;3.95;;
75700;SDS011;64321;48.796;44.740;2023-02-28T19:27:28;8.15;;;4.35;;
75700;SDS011;64321;48.796;44.740;2023-02-28T19:32:30;10.20;;;5.85;;
75700;SDS011;64321;48.796;44.740;2023-02-28T19:37:32;9.00;;;4.10;;
75700;SDS011;64321;48.796;44.740;2023-02-28T19:42:37;9.65;;;5.07;;
75700;SDS011;64321;48.796;44.740;2023-02-28T19:47:40;9.00;;;5.05;;
75700;SDS011;64321;48.796;44.740;2023-02-28T19:52:42;9.95;;;4.85;;
75700;SDS011;64321;48.796;44.740;2023-02-28T19:57:45;10.38;;;5.70;;
75700;SDS011;64321;48.796;44.740;2023-02-28T20:02:47;10.23;;;5.10;;
75700;SDS011;64321;48.796;44.740;2023-02-28T20:07:50;7.75;;;4.28;;
75700;SDS011;64321;48.796;44.740;2023-02-28T20:12:52;10.63;;;5.13;;
75700;SDS011;64321;48.796;44.740;2023-02-28T20:17:54;11.40;;;5.90;;
75700;SDS011;64321;48.796;44.740;2023-02-28T20:22:58;9.48;;;4.72;;
75700;SDS011;64321;48.796;44.740;2023-02-28T20:28:00;13.40;;;6.00;;
75700;SDS011;64321;48.796;44.740;2023-02-28T20:33:02;10.02;;;5.53;;
75700;SDS011;64321;48.796;44.740;2023-02-28T20:38:05;10.30;;;5.75;;
75700;SDS011;64321;48.796;44.740;2023-02-28T20:43:07;12.95;;;6.00;;
75700;SDS011;64321;48.796;44.740;2023-02-28T20:48:09;10.30;;;4.30;;
75700;SDS011;64321;48.796;44.740;2023-02-28T20:53:12;11.77;;;6.55;;
75700;SDS011;64321;48.796;44.740;2023-02-28T20:58:14;12.25;;;5.55;;
75700;SDS011;64321;48.796;44.740;2023-02-28T21:03:16;12.65;;;6.68;;
75700;SDS011;64321;48.796;44.740;2023-02-28T21:08:18;13.00;;;6.30;;
75700;SDS011;64321;48.796;44.740;2023-02-28T21:13:20;12.18;;;6.10;;
75700;SDS011;64321;48.796;44.740;2023-02-28T21:18:23;12.23;;;6.13;;
75700;SDS011;64321;48.796;44.740;2023-02-28T21:23:25;15.15;;;6.80;;
75700;SDS011;64321;48.796;44.740;2023-02-28T21:28:27;14.10;;;6.97;;
75700;SDS011;64321;48.796;44.740;2023-02-28T21:33:30;14.02;;;6.70;;
75700;SDS011;64321;48.796;44.740;2023-02-28T21:38:33;12.45;;;5.85;;
75700;SDS011;64321;48.796;44.740;2023-02-28T21:43:35;14.70;;;7.20;;
75700;SDS011;64321;48.796;44.740;2023-02-28T21:48:38;15.55;;;6.35;;
75700;SDS011;64321;48.796;44.740;2023-02-28T21:53:41;13.73;;;6.95;;
75700;SDS011;64321;48.796;44.740;2023-02-28T21:58:43;11.25;;;6.22;;
75700;SDS011;64321;48.796;44.740;2023-02-28T22:03:46;12.95;;;6.07;;
75700;SDS011;64321;48.796;44.740;2023-02-28T22:08:50;13.20;;;6.68;;
75700;SDS011;64321;48.796;44.740;2023-02-28T22:13:53;12.23;;;5.18;;
75700;SDS011;64321;48.796;44.740;2023-02-28T22:19:00;10.75;;;5.53;;
75700;SDS011;64321;48.796;44.740;2023-02-28T22:24:08;15.18;;;6.55;;
75700;SDS011;64321;48.796;44.740;2023-02-28T22:29:10;14.52;;;6.00;;
75700;SDS011;64321;48.796;44.740;2023-02-28T22:34:13;14.25;;;6.55;;
75700;SDS011;64321;48.796;44.740;2023-02-28T22:39:15;11.30;;;5.20;;
75700;SDS011;64321;48.796;44.740;2023-02-28T22:44:17;13.93;;;6.43;;
75700;SDS011;64321;48.796;44.740;2023-02-28T22:49:19;11.73;;;5.30;;
75700;SDS011;64321;48.796;44.740;2023-02-28T22:54:21;12.20;;;5.70;;
75700;SDS011;64321;48.796;44.740;2023-02-28T22:59:24;13.10;;;6.03;;
75700;SDS011;64321;48.796;44.740;2023-02-28T23:04:26;13.07;;;5.25;;
75700;SDS011;64321;48.796;44.740;2023-02-28T23:09:47;11.27;;;5.90;;
75700;SDS011;64321;48.796;44.740;2023-02-28T23:14:51;13.70;;;4.75;;
75700;SDS011;64321;48.796;44.740;2023-02-28T23:19:54;11.45;;;4.32;;
75700;SDS011;64321;48.796;44.740;2023-02-28T23:24:56;9.77;;;4.88;;
75700;SDS011;64321;48.796;44.740;2023-02-28T23:29:58;10.98;;;5.15;;
75700;SDS011;64321;48.796;44.740;2023-02-28T23:35:00;13.65;;;6.57;;
75700;SDS011;64321;48.796;44.740;2023-02-28T23:40:04;13.43;;;6.80;;
75700;SDS011;64321;48.796;44.740;2023-02-28T23:45:07;11.05;;;4.80;;
75700;SDS011;64321;48.796;44.740;2023-02-28T23:50:09;14.27;;;6.28;;
75700;SDS011;64321;48.796;44.740;2023-02-28T23:55:12;10.43;;;5.10;;
